createdAt,value
2023-04-26T00:02:01.275Z,101402.59
2023-04-26T00:04:35.260Z,101398.28
2023-04-26T00:07:08.615Z,101405.59
2023-04-26T00:09:44.308Z,101399.66
2023-04-26T00:12:17.273Z,101404.38
2023-04-26T00:14:51.693Z,101401.19
2023-04-26T00:17:24.883Z,101401.69
2023-04-26T00:19:58.083Z,101408.88
2023-04-26T00:22:31.319Z,101399.88
2023-04-26T00:25:04.232Z,101396.78
2023-04-26T00:27:37.072Z,101405.38
2023-04-26T00:30:12.288Z,101400.25
2023-04-26T00:32:46.988Z,101408.69
2023-04-26T00:35:19.875Z,101395.34
2023-04-26T00:37:52.759Z,101401.84
2023-04-26T00:40:25.599Z,101398.88
2023-04-26T00:42:59.796Z,101401.78
2023-04-26T00:45:35.846Z,101398.19
2023-04-26T00:48:08.792Z,101390.13
2023-04-26T00:50:41.733Z,101391.47
2023-04-26T00:53:17.198Z,101393.09
2023-04-26T00:55:51.443Z,101395.38
2023-04-26T00:58:24.351Z,101382.94
2023-04-26T01:00:59.559Z,101383.50
2023-04-26T01:03:32.820Z,101386.28
2023-04-26T01:06:07.331Z,101389.84
2023-04-26T01:08:43.517Z,101387.47
2023-04-26T01:11:16.653Z,101385.66
2023-04-26T01:13:51.686Z,101388.75
2023-04-26T01:16:29.167Z,101388.16
2023-04-26T01:19:09.451Z,101384.28
2023-04-26T01:21:42.498Z,101392.50
2023-04-26T01:24:16.739Z,101388.34
2023-04-26T01:26:50.511Z,101390.94
2023-04-26T01:29:24.218Z,101395.00
2023-04-26T01:31:57.034Z,101398.78
2023-04-26T01:34:29.947Z,101384.22
2023-04-26T01:37:02.739Z,101400.03
2023-04-26T01:39:37.669Z,101401.59
2023-04-26T01:42:10.518Z,101403.47
2023-04-26T01:44:43.477Z,101403.16
2023-04-26T01:47:16.390Z,101400.66
2023-04-26T01:49:49.390Z,101394.59
2023-04-26T01:52:23.831Z,101399.88
2023-04-26T01:54:59.400Z,101397.94
2023-04-26T01:57:33.092Z,101397.91
2023-04-26T02:00:08.647Z,101401.13
2023-04-26T02:02:47.195Z,101398.56
2023-04-26T02:05:20.380Z,101399.91
2023-04-26T02:07:53.309Z,101397.72
2023-04-26T02:10:27.957Z,101403.34
2023-04-26T02:13:00.990Z,101406.47
2023-04-26T02:15:33.814Z,101406.53
2023-04-26T02:18:06.797Z,101405.19
2023-04-26T02:20:43.090Z,101408.69
2023-04-26T02:23:16.634Z,101412.78
2023-04-26T02:25:50.830Z,101413.34
2023-04-26T02:28:23.741Z,101412.97
2023-04-26T02:30:57.161Z,101405.47
2023-04-26T02:33:30.438Z,101408.44
2023-04-26T02:36:05.367Z,101407.56
2023-04-26T02:38:39.345Z,101401.88
2023-04-26T02:41:13.547Z,101415.28
2023-04-26T02:43:46.318Z,101418.69
2023-04-26T02:46:19.323Z,101407.59
2023-04-26T02:48:52.711Z,101403.09
2023-04-26T02:51:25.741Z,101401.25
2023-04-26T02:53:58.566Z,101403.75
2023-04-26T02:56:32.916Z,101400.69
2023-04-26T02:59:07.054Z,101404.00
2023-04-26T03:01:40.322Z,101412.94
2023-04-26T03:04:13.550Z,101401.38
2023-04-26T03:06:46.600Z,101393.75
2023-04-26T03:09:19.335Z,101391.72
2023-04-26T03:11:53.807Z,101398.97
2023-04-26T03:14:27.584Z,101397.75
2023-04-26T03:17:02.722Z,101396.47
2023-04-26T03:19:38.058Z,101388.88
2023-04-26T03:22:15.909Z,101405.22
2023-04-26T03:24:49.043Z,101388.00
2023-04-26T03:27:23.866Z,101385.22
2023-04-26T03:29:56.791Z,101393.28
2023-04-26T03:32:29.786Z,101388.88
2023-04-26T03:35:02.679Z,101392.56
2023-04-26T03:37:35.552Z,101388.03
2023-04-26T03:40:12.620Z,101382.38
2023-04-26T03:42:47.002Z,101384.94
2023-04-26T03:45:21.420Z,101387.50
2023-04-26T03:47:54.213Z,101375.91
2023-04-26T03:50:27.526Z,101379.97
2023-04-26T03:53:00.347Z,101388.66
2023-04-26T03:55:33.197Z,101388.78
2023-04-26T03:58:08.429Z,101382.88
2023-04-26T04:00:42.258Z,101386.94
2023-04-26T04:03:15.176Z,101384.22
2023-04-26T04:05:48.020Z,101393.13
2023-04-26T04:08:20.909Z,101393.13
2023-04-26T04:10:53.687Z,101387.00
2023-04-26T04:13:27.954Z,101389.19
2023-04-26T04:16:02.038Z,101384.78
2023-04-26T04:18:35.106Z,101382.03
2023-04-26T04:21:09.025Z,101391.44
2023-04-26T04:23:42.434Z,101390.50
2023-04-26T04:26:17.420Z,101391.28
2023-04-26T04:28:52.063Z,101398.38
2023-04-26T04:31:26.169Z,101386.94
2023-04-26T04:33:59.533Z,101385.22
2023-04-26T04:36:33.681Z,101387.88
2023-04-26T04:39:12.277Z,101389.31
2023-04-26T04:41:48.029Z,101407.34
2023-04-26T04:44:24.210Z,101403.06
2023-04-26T04:46:59.265Z,101405.31
2023-04-26T04:49:32.522Z,101407.00
2023-04-26T04:52:06.413Z,101406.16
2023-04-26T04:54:40.024Z,101406.75
2023-04-26T04:57:14.396Z,101404.63
2023-04-26T04:59:48.913Z,101400.00
2023-04-26T05:02:22.304Z,101396.47
2023-04-26T05:04:55.893Z,101400.53
2023-04-26T05:07:29.178Z,101403.09
2023-04-26T05:10:02.558Z,101400.38
2023-04-26T05:12:36.672Z,101403.09
2023-04-26T05:15:11.564Z,101407.78
2023-04-26T05:17:44.561Z,101418.81
2023-04-26T05:20:23.059Z,101409.84
2023-04-26T05:22:56.645Z,101419.38
2023-04-26T05:25:29.680Z,101428.16
2023-04-26T05:28:15.234Z,101427.78
2023-04-26T05:31:10.609Z,101424.97
2023-04-26T05:34:03.854Z,101432.56
2023-04-26T05:36:41.731Z,101433.06
2023-04-26T05:39:14.630Z,101430.38
2023-04-26T05:41:47.411Z,101429.66
2023-04-26T05:44:20.257Z,101437.13
2023-04-26T05:46:54.562Z,101434.97
2023-04-26T05:49:27.476Z,101446.72
2023-04-26T05:52:00.723Z,101440.47
2023-04-26T05:54:34.140Z,101444.28
2023-04-26T05:57:07.470Z,101444.31
2023-04-26T05:59:41.171Z,101457.19
2023-04-26T06:02:15.790Z,101453.59
2023-04-26T06:04:48.745Z,101457.31
2023-04-26T06:07:23.479Z,101457.19
2023-04-26T06:09:56.325Z,101455.06
2023-04-26T06:12:29.264Z,101454.38
2023-04-26T06:15:03.662Z,101458.56
2023-04-26T06:17:39.065Z,101462.22
2023-04-26T06:20:12.355Z,101457.38
2023-04-26T06:22:45.140Z,101453.03
2023-04-26T06:25:18.796Z,101454.53
2023-04-26T06:27:52.362Z,101459.50
2023-04-26T06:30:25.401Z,101465.53
2023-04-26T06:33:01.010Z,101462.34
2023-04-26T06:35:40.918Z,101461.34
2023-04-26T06:38:14.742Z,101462.31
2023-04-26T06:40:48.268Z,101465.00
2023-04-26T06:43:21.284Z,101468.44
2023-04-26T06:46:05.507Z,101472.31
2023-04-26T06:48:39.730Z,101460.44
2023-04-26T06:51:12.703Z,101463.16
2023-04-26T06:53:45.639Z,101464.16
2023-04-26T06:56:18.715Z,101471.97
2023-04-26T06:59:02.113Z,101472.19
2023-04-26T07:01:36.357Z,101466.28
2023-04-26T07:04:11.446Z,101466.38
2023-04-26T07:06:44.938Z,101462.47
2023-04-26T07:09:17.851Z,101466.34
2023-04-26T07:11:50.690Z,101459.91
2023-04-26T07:14:23.624Z,101459.47
2023-04-26T07:16:56.679Z,101463.88
2023-04-26T07:19:30.880Z,101462.34
2023-04-26T07:22:04.632Z,101467.84
2023-04-26T07:24:37.506Z,101462.28
2023-04-26T07:27:10.287Z,101466.41
2023-04-26T07:29:43.162Z,101462.09
2023-04-26T07:32:16.138Z,101461.75
2023-04-26T07:34:50.335Z,101466.00
2023-04-26T07:37:23.201Z,101464.41
2023-04-26T07:39:56.021Z,101466.72
2023-04-26T07:42:28.807Z,101457.66
2023-04-26T07:45:01.666Z,101453.88
2023-04-26T07:47:34.467Z,101460.63
2023-04-26T07:50:10.786Z,101450.75
2023-04-26T07:52:44.448Z,101452.63
2023-04-26T07:55:17.851Z,101453.84
2023-04-26T07:57:50.793Z,101456.44
2023-04-26T08:00:23.935Z,101470.63
2023-04-26T08:02:57.462Z,101464.25
2023-04-26T08:05:32.268Z,101456.66
2023-04-26T08:08:05.823Z,101464.81
2023-04-26T08:10:41.422Z,101453.78
2023-04-26T08:13:14.356Z,101451.41
2023-04-26T08:15:47.480Z,101458.47
2023-04-26T08:18:21.349Z,101451.53
2023-04-26T08:20:55.484Z,101457.50
2023-04-26T08:23:28.871Z,101460.91
2023-04-26T08:26:02.102Z,101457.78
2023-04-26T08:28:35.669Z,101451.53
2023-04-26T08:31:08.512Z,101450.97
2023-04-26T08:33:41.386Z,101453.94
2023-04-26T08:36:15.922Z,101449.19
2023-04-26T08:38:48.748Z,101451.91
2023-04-26T08:41:24.447Z,101455.91
2023-04-26T08:43:58.658Z,101453.16
2023-04-26T08:46:38.108Z,101460.88
2023-04-26T08:49:18.401Z,101454.38
2023-04-26T08:51:54.684Z,101451.38
2023-04-26T08:54:28.105Z,101450.69
2023-04-26T08:57:01.796Z,101459.19
2023-04-26T08:59:36.843Z,101449.69
2023-04-26T09:02:11.683Z,101444.03
2023-04-26T09:04:44.736Z,101458.19
2023-04-26T09:07:22.550Z,101463.69
2023-04-26T09:09:58.525Z,101457.44
2023-04-26T09:12:31.585Z,101450.41
2023-04-26T09:15:07.078Z,101447.31
2023-04-26T09:17:41.627Z,101453.78
2023-04-26T09:20:22.207Z,101446.72
2023-04-26T09:23:06.450Z,101452.97
2023-04-26T09:25:39.740Z,101457.66
2023-04-26T09:28:23.544Z,101455.09
2023-04-26T09:30:56.466Z,101465.53
2023-04-26T09:33:29.241Z,101457.22
2023-04-26T09:36:12.790Z,101458.81
2023-04-26T09:38:46.897Z,101457.09
2023-04-26T09:41:19.710Z,101461.25
2023-04-26T09:43:53.583Z,101461.38
2023-04-26T09:46:26.635Z,101462.88
2023-04-26T09:49:03.580Z,101458.41
2023-04-26T09:51:36.356Z,101442.31
2023-04-26T09:54:10.854Z,101457.66
2023-04-26T09:56:59.775Z,101442.34
2023-04-26T09:59:41.194Z,101435.66
2023-04-26T10:02:20.689Z,101438.19
2023-04-26T10:04:56.813Z,101441.31
2023-04-26T10:07:31.557Z,101438.56
2023-04-26T10:10:07.499Z,101439.69
2023-04-26T10:12:43.309Z,101434.75
2023-04-26T10:15:16.399Z,101429.06
2023-04-26T10:17:51.920Z,101415.03
2023-04-26T10:20:29.358Z,101427.72
2023-04-26T10:23:04.656Z,101438.03
2023-04-26T10:25:40.426Z,101439.56
2023-04-26T10:28:13.562Z,101444.09
2023-04-26T10:30:56.396Z,101436.75
2023-04-26T10:33:29.252Z,101432.06
2023-04-26T10:36:11.046Z,101438.72
2023-04-26T10:39:28.203Z,101430.13
2023-04-26T10:42:25.558Z,101434.88
2023-04-26T10:44:59.912Z,101432.16
2023-04-26T10:47:36.355Z,101434.00
2023-04-26T10:50:11.620Z,101441.69
2023-04-26T10:53:08.351Z,101438.41
2023-04-26T10:55:42.114Z,101430.84
2023-04-26T10:58:30.239Z,101437.88
2023-04-26T11:01:07.344Z,101438.59
2023-04-26T11:03:42.152Z,101424.38
2023-04-26T11:06:17.364Z,101428.97
2023-04-26T11:08:50.377Z,101412.06
2023-04-26T11:11:29.655Z,101419.34
2023-04-26T11:14:04.486Z,101424.25
2023-04-26T11:16:38.278Z,101426.91
2023-04-26T11:19:11.235Z,101420.63
2023-04-26T11:21:44.142Z,101421.88
2023-04-26T11:24:17.005Z,101420.91
2023-04-26T11:26:52.758Z,101419.69
2023-04-26T11:29:27.326Z,101419.19
2023-04-26T11:32:00.581Z,101421.06
2023-04-26T11:34:34.285Z,101404.75
2023-04-26T11:37:08.578Z,101416.16
2023-04-26T11:39:41.457Z,101429.84
2023-04-26T11:42:14.592Z,101435.22
2023-04-26T11:44:52.523Z,101438.69
2023-04-26T11:47:26.143Z,101432.94
2023-04-26T11:49:59.481Z,101428.59
2023-04-26T11:52:32.428Z,101423.78
2023-04-26T11:55:07.090Z,101432.50
2023-04-26T11:57:39.945Z,101414.78
2023-04-26T12:00:15.934Z,101413.28
2023-04-26T12:02:49.767Z,101413.50
2023-04-26T12:05:24.086Z,101424.06
2023-04-26T12:07:58.504Z,101415.31
2023-04-26T12:10:33.522Z,101422.13
2023-04-26T12:13:09.327Z,101417.66
2023-04-26T12:15:43.564Z,101401.69
2023-04-26T12:18:16.808Z,101407.03
2023-04-26T12:20:50.765Z,101415.78
2023-04-26T12:23:24.187Z,101417.50
2023-04-26T12:26:01.907Z,101415.94
2023-04-26T12:28:35.076Z,101413.13
2023-04-26T12:31:09.759Z,101414.84
2023-04-26T12:33:42.608Z,101421.78
2023-04-26T12:36:15.458Z,101418.97
2023-04-26T12:38:48.331Z,101413.59
2023-04-26T12:41:21.136Z,101410.91
2023-04-26T12:43:54.101Z,101418.22
2023-04-26T12:46:28.442Z,101398.16
2023-04-26T12:49:01.534Z,101417.41
2023-04-26T12:51:34.805Z,101416.72
2023-04-26T12:54:07.923Z,101401.13
2023-04-26T12:56:43.905Z,101409.59
2023-04-26T12:59:17.518Z,101395.09
2023-04-26T13:01:51.790Z,101402.19
2023-04-26T13:04:25.125Z,101404.69
2023-04-26T13:06:58.571Z,101412.47
2023-04-26T13:09:31.539Z,101401.66
2023-04-26T13:12:04.961Z,101403.16
2023-04-26T13:14:38.985Z,101409.50
2023-04-26T13:17:13.496Z,101405.59
2023-04-26T13:19:46.401Z,101410.75
2023-04-26T13:22:20.093Z,101403.56
2023-04-26T13:24:53.402Z,101408.16
2023-04-26T13:27:28.393Z,101405.34
2023-04-26T13:30:03.102Z,101414.34
2023-04-26T13:32:37.984Z,101420.47
2023-04-26T13:35:12.004Z,101415.81
2023-04-26T13:37:44.968Z,101419.69
2023-04-26T13:40:18.641Z,101415.56
2023-04-26T13:42:51.528Z,101417.03
2023-04-26T13:45:24.872Z,101410.47
2023-04-26T13:47:59.244Z,101406.47
2023-04-26T13:50:32.237Z,101405.94
2023-04-26T13:53:05.334Z,101395.25
2023-04-26T13:55:38.237Z,101417.91
2023-04-26T13:58:11.449Z,101400.03
2023-04-26T14:00:44.385Z,101386.50
2023-04-26T14:03:18.825Z,101406.53
2023-04-26T14:05:51.800Z,101397.16
2023-04-26T14:08:24.700Z,101394.84
2023-04-26T14:10:57.665Z,101402.31
2023-04-26T14:13:30.542Z,101395.47
2023-04-26T14:16:03.443Z,101394.50
2023-04-26T14:18:39.941Z,101390.78
2023-04-26T14:21:13.002Z,101397.72
2023-04-26T14:23:46.202Z,101393.44
2023-04-26T14:26:20.369Z,101395.47
2023-04-26T14:28:53.258Z,101400.31
2023-04-26T14:31:27.979Z,101393.06
2023-04-26T14:34:02.092Z,101408.31
2023-04-26T14:36:35.935Z,101391.94
2023-04-26T14:39:09.699Z,101405.56
2023-04-26T14:41:43.403Z,101398.69
2023-04-26T14:44:16.243Z,101400.84
2023-04-26T14:46:49.157Z,101409.38
2023-04-26T14:49:23.755Z,101398.13
2023-04-26T14:51:56.632Z,101400.06
2023-04-26T14:54:29.479Z,101406.94
2023-04-26T14:57:02.703Z,101403.94
2023-04-26T14:59:35.795Z,101393.50
2023-04-26T15:02:08.687Z,101389.78
2023-04-26T15:04:43.227Z,101386.81
2023-04-26T15:07:30.936Z,101385.97
2023-04-26T15:10:06.294Z,101389.38
2023-04-26T15:12:39.271Z,101389.66
2023-04-26T15:15:12.885Z,101391.09
2023-04-26T15:17:45.828Z,101387.56
2023-04-26T15:20:20.636Z,101383.13
2023-04-26T15:22:53.556Z,101388.41
2023-04-26T15:25:26.640Z,101382.28
2023-04-26T15:27:59.524Z,101383.75
2023-04-26T15:30:32.426Z,101386.97
2023-04-26T15:33:06.574Z,101384.28
2023-04-26T15:35:41.263Z,101380.06
2023-04-26T15:38:13.999Z,101377.06
2023-04-26T15:40:46.995Z,101374.31
2023-04-26T15:43:20.168Z,101375.81
2023-04-26T15:45:53.157Z,101379.47
2023-04-26T15:48:26.999Z,101382.06
2023-04-26T15:51:05.278Z,101379.81
2023-04-26T15:53:43.368Z,101382.34
2023-04-26T15:56:17.624Z,101376.13
2023-04-26T15:58:50.500Z,101376.94
2023-04-26T16:01:23.438Z,101381.75
2023-04-26T16:03:56.617Z,101384.06
2023-04-26T16:06:31.038Z,101381.63
2023-04-26T16:09:23.026Z,101378.59
2023-04-26T16:11:56.752Z,101354.00
2023-04-26T16:14:31.140Z,101387.91
2023-04-26T16:17:05.036Z,101381.25
2023-04-26T16:19:38.193Z,101374.47
2023-04-26T16:22:12.402Z,101385.69
2023-04-26T16:24:45.674Z,101381.44
2023-04-26T16:27:20.803Z,101386.13
2023-04-26T16:29:53.824Z,101391.59
2023-04-26T16:32:27.009Z,101380.78
2023-04-26T16:35:00.171Z,101381.09
2023-04-26T16:37:34.615Z,101354.25
2023-04-26T16:40:10.419Z,101379.31
2023-04-26T16:42:44.365Z,101378.34
2023-04-26T16:45:17.481Z,101386.38
2023-04-26T16:47:50.663Z,101385.06
2023-04-26T16:50:23.711Z,101379.81
2023-04-26T16:52:57.957Z,101383.09
2023-04-26T16:55:31.067Z,101393.00
2023-04-26T16:58:03.893Z,101357.97
2023-04-26T17:00:36.979Z,101385.47
2023-04-26T17:03:10.626Z,101385.31
2023-04-26T17:05:46.785Z,101401.22
2023-04-26T17:08:21.925Z,101401.66
2023-04-26T17:10:54.767Z,101405.88
2023-04-26T17:13:29.290Z,101402.91
2023-04-26T17:16:02.352Z,101394.78
2023-04-26T17:18:35.537Z,101408.63
2023-04-26T17:21:08.445Z,101402.53
2023-04-26T17:23:42.694Z,101404.34
2023-04-26T17:26:15.635Z,101402.53
2023-04-26T17:28:48.470Z,101406.31
2023-04-26T17:31:21.872Z,101403.66
2023-04-26T17:33:54.847Z,101406.38
2023-04-26T17:36:27.835Z,101397.56
2023-04-26T17:39:02.186Z,101399.88
2023-04-26T17:41:35.047Z,101399.03
2023-04-26T17:44:08.064Z,101398.78
2023-04-26T17:46:41.562Z,101397.75
2023-04-26T17:49:14.400Z,101404.38
2023-04-26T17:51:47.650Z,101395.75
2023-04-26T17:54:22.119Z,101396.84
2023-04-26T17:56:55.140Z,101407.53
2023-04-26T17:59:28.008Z,101401.44
2023-04-26T18:02:01.838Z,101410.94
2023-04-26T18:04:35.558Z,101403.28
2023-04-26T18:07:08.703Z,101409.66
2023-04-26T18:09:42.859Z,101419.00
2023-04-26T18:12:15.795Z,101418.59
2023-04-26T18:14:49.207Z,101418.56
2023-04-26T18:17:22.285Z,101416.34
2023-04-26T18:19:55.356Z,101418.56
2023-04-26T18:22:28.494Z,101429.00
2023-04-26T18:25:03.733Z,101423.66
2023-04-26T18:27:36.583Z,101418.88
2023-04-26T18:30:10.593Z,101423.41
2023-04-26T18:32:43.439Z,101426.41
2023-04-26T18:35:16.464Z,101421.19
2023-04-26T18:37:55.538Z,101424.06
2023-04-26T18:40:29.857Z,101426.66
2023-04-26T18:43:02.785Z,101434.78
2023-04-26T18:45:35.587Z,101421.13
2023-04-26T18:48:08.847Z,101430.38
2023-04-26T18:50:41.702Z,101426.69
2023-04-26T18:53:14.536Z,101433.06
2023-04-26T18:55:48.926Z,101433.44
2023-04-26T18:58:21.759Z,101438.25
2023-04-26T19:00:54.562Z,101445.16
2023-04-26T19:03:27.585Z,101439.94
2023-04-26T19:06:00.495Z,101435.91
2023-04-26T19:08:33.303Z,101445.31
2023-04-26T19:11:08.884Z,101442.00
2023-04-26T19:13:42.902Z,101445.84
2023-04-26T19:16:16.149Z,101450.66
2023-04-26T19:18:49.111Z,101452.34
2023-04-26T19:21:22.227Z,101448.31
2023-04-26T19:23:55.110Z,101457.50
2023-04-26T19:26:29.236Z,101464.13
2023-04-26T19:29:04.089Z,101464.84
2023-04-26T19:31:38.735Z,101464.00
2023-04-26T19:34:12.780Z,101458.31
2023-04-26T19:36:46.112Z,101459.50
2023-04-26T19:39:19.825Z,101456.66
2023-04-26T19:41:55.845Z,101456.00
2023-04-26T19:44:28.684Z,101474.78
2023-04-26T19:47:01.484Z,101464.53
2023-04-26T19:49:35.248Z,101468.94
2023-04-26T19:52:08.097Z,101465.69
2023-04-26T19:54:41.179Z,101463.16
2023-04-26T19:57:15.408Z,101477.44
2023-04-26T19:59:49.806Z,101473.19
2023-04-26T20:02:22.940Z,101471.78
2023-04-26T20:04:56.065Z,101475.13
2023-04-26T20:07:29.528Z,101482.16
2023-04-26T20:10:02.392Z,101480.94
2023-04-26T20:12:37.561Z,101486.41
2023-04-26T20:15:12.051Z,101479.28
2023-04-26T20:17:45.075Z,101485.00
2023-04-26T20:20:17.979Z,101485.81
2023-04-26T20:22:50.956Z,101482.66
2023-04-26T20:25:24.475Z,101485.69
2023-04-26T20:27:58.669Z,101491.53
2023-04-26T20:30:33.648Z,101496.19
2023-04-26T20:33:06.673Z,101491.13
2023-04-26T20:35:39.595Z,101492.03
2023-04-26T20:38:12.969Z,101495.41
2023-04-26T20:40:45.792Z,101503.28
2023-04-26T20:43:20.045Z,101503.25
2023-04-26T20:45:52.971Z,101507.59
2023-04-26T20:48:26.053Z,101497.25
2023-04-26T20:51:00.733Z,101494.91
2023-04-26T20:53:33.595Z,101491.06
2023-04-26T20:56:06.876Z,101498.34
2023-04-26T20:58:41.252Z,101490.78
2023-04-26T21:01:14.181Z,101499.66
2023-04-26T21:03:47.097Z,101492.38
2023-04-26T21:06:20.202Z,101500.59
2023-04-26T21:08:53.074Z,101494.91
2023-04-26T21:11:26.201Z,101498.66
2023-04-26T21:14:00.935Z,101500.75
2023-04-26T21:16:34.137Z,101508.56
2023-04-26T21:19:08.044Z,101497.13
2023-04-26T21:21:41.196Z,101492.53
2023-04-26T21:24:14.149Z,101491.34
2023-04-26T21:26:47.124Z,101496.47
2023-04-26T21:29:21.368Z,101483.22
2023-04-26T21:31:54.329Z,101502.22
2023-04-26T21:34:27.227Z,101499.19
2023-04-26T21:37:00.037Z,101493.50
2023-04-26T21:39:32.837Z,101510.78
2023-04-26T21:42:05.737Z,101507.44
2023-04-26T21:44:39.990Z,101493.97
2023-04-26T21:47:12.821Z,101503.75
2023-04-26T21:49:45.922Z,101506.59
2023-04-26T21:52:18.820Z,101492.84
2023-04-26T21:54:52.898Z,101493.00
2023-04-26T21:57:25.960Z,101500.13
2023-04-26T22:00:00.325Z,101503.75
2023-04-26T22:02:33.431Z,101506.78
2023-04-26T22:05:07.232Z,101512.88
2023-04-26T22:07:40.182Z,101513.34
2023-04-26T22:10:12.993Z,101516.41
2023-04-26T22:12:45.856Z,101507.66
2023-04-26T22:15:20.088Z,101519.34
2023-04-26T22:17:53.112Z,101505.06
2023-04-26T22:20:26.456Z,101519.81
2023-04-26T22:22:59.295Z,101521.66
2023-04-26T22:25:32.178Z,101527.53
2023-04-26T22:28:05.207Z,101526.53
2023-04-26T22:30:39.401Z,101528.47
2023-04-26T22:33:12.450Z,101526.75
2023-04-26T22:35:45.516Z,101528.63
2023-04-26T22:38:18.320Z,101533.25
2023-04-26T22:40:51.557Z,101537.03
2023-04-26T22:43:24.567Z,101529.91
2023-04-26T22:45:58.885Z,101531.09
2023-04-26T22:48:31.759Z,101536.13
2023-04-26T22:51:04.871Z,101525.59
2023-04-26T22:53:37.642Z,101528.00
2023-04-26T22:56:10.720Z,101536.50
2023-04-26T22:58:43.507Z,101536.91
2023-04-26T23:01:17.732Z,101540.09
2023-04-26T23:03:50.693Z,101544.63
2023-04-26T23:06:23.746Z,101540.84
2023-04-26T23:08:56.641Z,101549.22
2023-04-26T23:11:29.438Z,101541.03
2023-04-26T23:14:04.054Z,101540.72
2023-04-26T23:16:39.666Z,101539.91
2023-04-26T23:19:12.765Z,101537.84
2023-04-26T23:21:46.034Z,101547.91
2023-04-26T23:24:18.909Z,101547.63
2023-04-26T23:26:51.713Z,101553.75
2023-04-26T23:29:24.523Z,101550.31
2023-04-26T23:31:59.061Z,101550.78
2023-04-26T23:34:32.126Z,101547.66
2023-04-26T23:37:07.283Z,101560.66
2023-04-26T23:39:40.812Z,101559.47
2023-04-26T23:42:13.828Z,101558.34
2023-04-26T23:44:46.707Z,101556.75
2023-04-26T23:47:21.087Z,101559.88
2023-04-26T23:49:53.943Z,101565.03
2023-04-26T23:52:26.789Z,101558.19
2023-04-26T23:54:59.633Z,101556.38
2023-04-26T23:57:32.543Z,101562.50
